Time;durP1;ratioP1;P1;durP2;ratioP2;P2;SDS_P1;SDS_P2;PMS_P1;PMS_P2;Temp;Humidity;BMP_temperature;BMP_pressure;BME280_temperature;BME280_humidity;BME280_pressure;Samples;Min_cycle;Max_cycle;Signal;HPM_P1;HPM_P2
2023/02/04 00:00:52;;;;;;;22.48;4.18;;;7.10;99.90;;;;;;4919658;29;20099;-93
2023/02/04 00:03:17;;;;;;;28.63;5.03;;;7.10;99.90;;;;;;4937344;29;20127;-91
2023/02/04 00:05:43;;;;;;;30.92;5.20;;;7.10;99.90;;;;;;4919666;29;20130;-92
2023/02/04 00:08:09;;;;;;;36.25;5.22;;;7.10;99.90;;;;;;4936455;29;20044;-92
2023/02/04 00:10:35;;;;;;;22.05;3.85;;;7.10;99.90;;;;;;4918506;29;20039;-92
2023/02/04 00:13:02;;;;;;;33.53;5.75;;;7.10;99.90;;;;;;4919671;29;20134;-92
2023/02/04 00:15:28;;;;;;;21.70;3.88;;;7.10;99.90;;;;;;4919262;29;20048;-92
2023/02/04 00:17:54;;;;;;;27.55;4.50;;;7.10;99.90;;;;;;4936600;29;20591;-93
2023/02/04 00:20:20;;;;;;;25.17;4.53;;;7.10;99.90;;;;;;4919612;29;20134;-92
2023/02/04 00:22:45;;;;;;;27.80;4.53;;;7.10;99.90;;;;;;4919755;29;20047;-93
2023/02/04 00:25:14;;;;;;;21.85;4.00;;;7.10;99.90;;;;;;4919797;29;20043;-92
2023/02/04 00:27:39;;;;;;;39.22;5.68;;;7.00;99.90;;;;;;4936758;29;20047;-93
2023/02/04 00:30:06;;;;;;;34.38;4.68;;;7.00;99.90;;;;;;4919928;29;20554;-92
2023/02/04 00:32:32;;;;;;;33.67;5.00;;;7.10;99.90;;;;;;4935422;29;20134;-93
2023/02/04 00:34:58;;;;;;;42.47;6.50;;;7.10;99.90;;;;;;4933895;23;20135;-93
2023/02/04 00:37:24;;;;;;;31.70;4.70;;;7.00;99.90;;;;;;4917519;29;20519;-92
2023/02/04 00:39:49;;;;;;;30.38;5.50;;;7.10;99.90;;;;;;4901141;29;20047;-93
2023/02/04 00:42:21;;;;;;;23.95;4.43;;;7.10;99.90;;;;;;4917249;29;20040;-92
2023/02/04 00:44:46;;;;;;;38.28;5.50;;;7.00;99.90;;;;;;4901375;29;20052;-92
2023/02/04 00:47:12;;;;;;;32.58;5.55;;;7.00;99.90;;;;;;4900523;29;20047;-92
2023/02/04 00:49:37;;;;;;;27.02;4.68;;;7.00;99.90;;;;;;4916882;29;20044;-92
2023/02/04 00:52:03;;;;;;;32.13;4.55;;;7.00;99.90;;;;;;4900862;29;20036;-92
2023/02/04 00:54:29;;;;;;;33.13;5.70;;;7.00;99.90;;;;;;4900957;29;20135;-92
2023/02/04 00:56:55;;;;;;;26.40;4.40;;;7.00;99.90;;;;;;4900272;29;20040;-92
2023/02/04 00:59:20;;;;;;;39.20;5.85;;;7.00;99.90;;;;;;4900516;29;20055;-92
2023/02/04 01:01:46;;;;;;;44.20;5.55;;;7.00;99.90;;;;;;4900513;29;20051;-93
2023/02/04 01:04:12;;;;;;;35.55;5.13;;;7.00;99.90;;;;;;4899924;29;20048;-93
2023/02/04 01:06:37;;;;;;;39.15;4.78;;;7.00;99.90;;;;;;4900453;29;20055;-93
2023/02/04 01:09:04;;;;;;;31.45;4.88;;;7.00;99.90;;;;;;4906008;29;20041;-91
2023/02/04 01:11:30;;;;;;;29.15;4.40;;;7.00;99.90;;;;;;4904674;29;20075;-92
2023/02/04 01:13:56;;;;;;;28.60;4.75;;;7.00;99.90;;;;;;4900908;29;20139;-91
2023/02/04 01:16:22;;;;;;;22.42;4.43;;;7.00;99.90;;;;;;4916759;29;20086;-93
2023/02/04 01:18:47;;;;;;;35.50;5.47;;;7.00;99.90;;;;;;4917162;29;20068;-91
2023/02/04 01:21:13;;;;;;;38.53;5.15;;;7.00;99.90;;;;;;4900704;29;20056;-93
2023/02/04 01:23:39;;;;;;;42.15;6.15;;;7.00;99.90;;;;;;4900369;29;20044;-93
2023/02/04 01:26:04;;;;;;;44.85;5.70;;;7.00;99.90;;;;;;4900790;29;20409;-93
2023/02/04 01:28:30;;;;;;;43.05;6.32;;;7.00;99.90;;;;;;4917518;29;20511;-92
2023/02/04 01:30:55;;;;;;;37.17;5.65;;;7.00;99.90;;;;;;4917410;29;20535;-91
2023/02/04 01:33:21;;;;;;;25.35;4.00;;;7.00;99.90;;;;;;4900350;29;20047;-92
2023/02/04 01:35:47;;;;;;;22.65;3.90;;;7.00;99.90;;;;;;4900746;29;20048;-93
2023/02/04 01:38:13;;;;;;;41.65;6.35;;;7.00;99.90;;;;;;4900225;29;20588;-93
2023/02/04 01:40:39;;;;;;;48.38;6.53;;;7.00;99.90;;;;;;4914932;29;20040;-92
2023/02/04 01:43:05;;;;;;;32.25;4.70;;;7.00;99.90;;;;;;4900629;29;20044;-91
2023/02/04 01:45:33;;;;;;;44.17;6.50;;;7.00;99.90;;;;;;4917444;29;20044;-93
2023/02/04 01:47:59;;;;;;;49.25;6.93;;;7.00;99.90;;;;;;4917413;29;20056;-93
2023/02/04 01:50:25;;;;;;;43.65;5.30;;;7.00;99.90;;;;;;4901481;29;20493;-93
2023/02/04 01:52:50;;;;;;;22.25;4.03;;;7.00;99.90;;;;;;4920671;29;20059;-94
2023/02/04 01:55:23;;;;;;;38.47;5.82;;;7.00;99.90;;;;;;4903760;29;20068;-92
2023/02/04 01:57:51;;;;;;;33.22;4.97;;;7.00;99.90;;;;;;4903601;29;20505;-92
2023/02/04 02:00:28;;;;;;;41.60;5.25;;;7.00;99.90;;;;;;4902821;29;20051;-93
2023/02/04 02:02:54;;;;;;;53.17;6.63;;;7.00;99.90;;;;;;4903988;29;20134;-91
2023/02/04 02:05:48;;;;;;;25.58;4.68;;;7.00;99.90;;;;;;4903625;29;20417;-93
2023/02/04 02:08:17;;;;;;;24.58;4.07;;;7.00;99.90;;;;;;4901754;29;20100;-91
2023/02/04 02:10:46;;;;;;;44.20;5.75;;;7.00;99.90;;;;;;4903720;29;20051;-93
2023/02/04 02:13:17;;;;;;;44.22;6.00;;;7.00;99.90;;;;;;4919970;29;20052;-94
2023/02/04 02:15:43;;;;;;;18.10;3.17;;;7.00;99.90;;;;;;4903491;29;20126;-92
2023/02/04 02:18:09;;;;;;;36.13;5.15;;;7.10;99.90;;;;;;4903640;29;20119;-93
2023/02/04 02:20:35;;;;;;;13.75;3.13;;;7.10;99.90;;;;;;4902829;29;20059;-94
2023/02/04 02:23:18;;;;;;;36.20;5.85;;;7.10;99.90;;;;;;4903144;29;20044;-92
2023/02/04 02:25:44;;;;;;;33.65;5.57;;;7.10;99.90;;;;;;4903337;29;20055;-93
2023/02/04 02:28:13;;;;;;;28.58;4.45;;;7.10;99.90;;;;;;4919475;29;20127;-92
2023/02/04 02:30:41;;;;;;;15.15;3.42;;;7.10;99.90;;;;;;4919719;29;20048;-93
2023/02/04 02:33:07;;;;;;;49.38;5.93;;;7.00;99.90;;;;;;4920239;29;20051;-92
2023/02/04 02:35:33;;;;;;;42.20;6.25;;;7.10;99.90;;;;;;4902067;29;20067;-92
2023/02/04 02:37:59;;;;;;;21.25;3.53;;;7.10;99.90;;;;;;4919385;29;20115;-92
2023/02/04 02:40:24;;;;;;;37.47;5.63;;;7.10;99.90;;;;;;4919441;29;20085;-92
2023/02/04 02:42:54;;;;;;;33.92;4.55;;;7.10;99.90;;;;;;4902578;29;20115;-93
2023/02/04 02:45:26;;;;;;;42.70;5.45;;;7.00;99.90;;;;;;4892338;29;20048;-92
2023/02/04 02:47:52;;;;;;;23.60;4.00;;;7.10;99.90;;;;;;4902657;29;20139;-92
2023/02/04 02:50:22;;;;;;;35.50;4.55;;;7.10;99.90;;;;;;4902716;29;20523;-92
2023/02/04 02:52:52;;;;;;;19.92;3.33;;;7.10;99.90;;;;;;4902487;29;20408;-91
2023/02/04 02:55:19;;;;;;;19.63;3.70;;;7.00;99.90;;;;;;4902166;29;20134;-91
2023/02/04 02:57:46;;;;;;;24.00;3.85;;;7.10;99.90;;;;;;4919433;29;20077;-92
2023/02/04 03:00:24;;;;;;;31.52;4.40;;;7.10;99.90;;;;;;4910754;29;20076;-93
2023/02/04 03:02:55;;;;;;;35.72;4.75;;;7.10;99.90;;;;;;4900416;29;20053;-92
2023/02/04 03:05:21;;;;;;;14.98;2.90;;;7.10;99.90;;;;;;4883864;29;20055;-91
2023/02/04 03:07:47;;;;;;;42.22;5.47;;;7.10;99.90;;;;;;4906123;29;20048;-93
2023/02/04 03:10:13;;;;;;;37.78;5.05;;;7.00;99.90;;;;;;4901642;29;20504;-93
2023/02/04 03:12:39;;;;;;;43.22;5.90;;;7.10;99.90;;;;;;4902316;29;20074;-93
2023/02/04 03:15:05;;;;;;;19.35;3.00;;;7.10;99.90;;;;;;4902812;29;20079;-93
2023/02/04 03:17:34;;;;;;;17.42;3.35;;;7.00;99.90;;;;;;4901580;29;20055;-92
2023/02/04 03:20:01;;;;;;;15.77;2.78;;;7.10;99.90;;;;;;4902225;29;20040;-92
2023/02/04 03:22:27;;;;;;;30.00;4.88;;;7.10;99.90;;;;;;4916858;29;20044;-93
2023/02/04 03:24:52;;;;;;;18.13;3.60;;;7.00;99.90;;;;;;4919122;29;20047;-93
2023/02/04 03:27:18;;;;;;;41.55;5.68;;;7.00;99.90;;;;;;4902330;29;20050;-92
2023/02/04 03:29:44;;;;;;;22.60;3.65;;;7.00;99.90;;;;;;4919468;29;20123;-91
2023/02/04 03:32:10;;;;;;;21.75;3.75;;;7.00;99.90;;;;;;4901707;29;20076;-94
2023/02/04 03:34:36;;;;;;;28.00;4.15;;;7.00;99.90;;;;;;4901691;29;20052;-92
2023/02/04 03:37:02;;;;;;;34.50;5.18;;;7.00;99.90;;;;;;4901034;29;20067;-93
2023/02/04 03:39:27;;;;;;;16.70;3.35;;;7.00;99.90;;;;;;4918127;29;20036;-92
2023/02/04 03:41:53;;;;;;;34.90;4.55;;;7.00;99.90;;;;;;4901779;29;20048;-92
2023/02/04 03:44:20;;;;;;;15.48;2.88;;;7.00;99.90;;;;;;4918402;29;20370;-93
2023/02/04 03:46:46;;;;;;;35.63;5.15;;;7.00;99.90;;;;;;4918858;29;20075;-92
2023/02/04 03:49:11;;;;;;;37.75;5.50;;;7.00;99.90;;;;;;4907487;29;20128;-92
2023/02/04 03:51:37;;;;;;;39.00;5.57;;;7.00;99.90;;;;;;4883027;29;20115;-93
2023/02/04 03:54:03;;;;;;;32.25;5.03;;;7.00;99.90;;;;;;4918890;29;20046;-93
2023/02/04 03:56:31;;;;;;;34.22;5.38;;;7.00;99.90;;;;;;4901361;29;20511;-92
2023/02/04 03:58:57;;;;;;;15.95;3.15;;;7.00;99.90;;;;;;4917854;29;20099;-92
2023/02/04 04:01:22;;;;;;;28.00;3.65;;;7.00;99.90;;;;;;4917471;29;20438;-94
2023/02/04 04:03:48;;;;;;;20.90;2.90;;;7.00;99.90;;;;;;4901065;29;20072;-92
2023/02/04 04:06:14;;;;;;;37.97;5.30;;;7.00;99.90;;;;;;4900994;29;20488;-93
2023/02/04 04:08:39;;;;;;;41.90;5.93;;;7.00;99.90;;;;;;4900026;29;20135;-93
2023/02/04 04:11:05;;;;;;;33.00;4.28;;;7.00;99.90;;;;;;4914238;29;20044;-92
2023/02/04 04:13:30;;;;;;;16.42;2.83;;;7.00;99.90;;;;;;4882389;29;20543;-94
2023/02/04 04:15:56;;;;;;;15.88;3.15;;;7.00;99.90;;;;;;4899603;29;20047;-91
2023/02/04 04:18:22;;;;;;;16.05;2.80;;;7.00;99.90;;;;;;4899575;29;20072;-94
2023/02/04 04:20:47;;;;;;;16.33;2.35;;;7.00;99.90;;;;;;4882506;29;20049;-93
2023/02/04 04:23:13;;;;;;;21.17;3.85;;;7.00;99.90;;;;;;4915802;29;20048;-92
2023/02/04 04:25:38;;;;;;;16.33;2.88;;;7.00;99.90;;;;;;4897622;29;20052;-92
2023/02/04 04:28:04;;;;;;;23.10;3.72;;;7.00;99.90;;;;;;4900778;29;20047;-94
2023/02/04 04:30:30;;;;;;;15.27;2.50;;;7.00;99.90;;;;;;4900648;29;20608;-92
2023/02/04 04:32:55;;;;;;;44.53;6.55;;;7.00;99.90;;;;;;4918222;29;20465;-92
2023/02/04 04:35:21;;;;;;;20.55;3.40;;;7.00;99.90;;;;;;4916952;29;20056;-93
2023/02/04 04:37:46;;;;;;;22.92;3.47;;;7.00;99.90;;;;;;4901195;29;20062;-93
2023/02/04 04:40:15;;;;;;;35.60;4.57;;;7.00;99.90;;;;;;4916530;29;20044;-92
2023/02/04 04:42:40;;;;;;;35.05;5.43;;;7.00;99.90;;;;;;4900923;29;20076;-92
2023/02/04 04:45:08;;;;;;;34.83;4.82;;;7.00;99.90;;;;;;4900858;29;20051;-93
2023/02/04 04:47:33;;;;;;;24.85;3.85;;;7.00;99.90;;;;;;4900035;29;20080;-92
2023/02/04 04:50:03;;;;;;;26.85;3.92;;;7.00;99.90;;;;;;4901241;29;20043;-90
2023/02/04 04:52:28;;;;;;;24.20;3.78;;;7.00;99.90;;;;;;4917488;29;20091;-91
2023/02/04 04:54:54;;;;;;;18.92;3.08;;;7.00;99.90;;;;;;4900486;29;20051;-91
2023/02/04 04:57:20;;;;;;;23.67;3.83;;;7.00;99.90;;;;;;4923420;23;20051;-92
2023/02/04 04:59:45;;;;;;;20.73;3.47;;;7.00;99.90;;;;;;4936762;29;20052;-92
2023/02/04 05:02:11;;;;;;;24.52;4.10;;;6.90;99.90;;;;;;4919386;29;20152;-91
2023/02/04 05:04:37;;;;;;;39.25;5.20;;;7.00;99.90;;;;;;4903979;29;20066;-91
2023/02/04 05:07:03;;;;;;;23.83;3.45;;;7.00;99.90;;;;;;4936464;29;20515;-90
2023/02/04 05:09:29;;;;;;;18.92;2.75;;;7.00;99.90;;;;;;4918742;29;20078;-92
2023/02/04 05:11:55;;;;;;;17.27;2.95;;;7.00;99.90;;;;;;4936730;29;20047;-92
2023/02/04 05:14:23;;;;;;;13.02;2.83;;;7.00;99.90;;;;;;4934273;29;20099;-92
2023/02/04 05:16:48;;;;;;;16.33;3.10;;;7.00;99.90;;;;;;4936153;29;20492;-92
2023/02/04 05:19:14;;;;;;;19.38;2.88;;;6.90;99.90;;;;;;4919493;29;20055;-91
2023/02/04 05:21:39;;;;;;;15.52;2.80;;;7.00;99.90;;;;;;4908889;29;20216;-90
2023/02/04 05:24:05;;;;;;;13.85;3.00;;;6.90;99.90;;;;;;4915698;29;20080;-91
2023/02/04 05:26:31;;;;;;;13.45;2.92;;;6.90;99.90;;;;;;4938400;29;20237;-93
2023/02/04 05:29:01;;;;;;;13.93;2.80;;;6.90;99.90;;;;;;4932792;29;20509;-91
2023/02/04 05:31:27;;;;;;;14.02;2.72;;;6.90;99.90;;;;;;4916255;29;20044;-92
2023/02/04 05:33:53;;;;;;;10.23;2.35;;;6.90;99.90;;;;;;4922610;29;20511;-92
2023/02/04 05:36:19;;;;;;;13.25;2.30;;;6.90;99.90;;;;;;4939330;29;20051;-93
2023/02/04 05:38:45;;;;;;;9.38;2.17;;;6.90;99.90;;;;;;4938839;29;20046;-92
2023/02/04 05:41:13;;;;;;;11.30;2.30;;;6.90;99.90;;;;;;4939667;29;20082;-94
2023/02/04 05:43:41;;;;;;;15.18;2.50;;;6.90;99.90;;;;;;4922553;29;20052;-93
2023/02/04 05:46:07;;;;;;;9.32;2.13;;;6.90;99.90;;;;;;4922421;29;20035;-91
2023/02/04 05:48:33;;;;;;;9.57;1.80;;;6.90;99.90;;;;;;4939212;29;20433;-91
2023/02/04 05:51:01;;;;;;;17.23;2.63;;;6.90;99.90;;;;;;4920855;29;20040;-93
2023/02/04 05:53:27;;;;;;;12.55;2.58;;;6.90;99.90;;;;;;4918947;29;20068;-92
2023/02/04 05:55:53;;;;;;;13.75;2.40;;;6.90;99.90;;;;;;4913051;29;20052;-92
2023/02/04 05:58:18;;;;;;;9.60;2.10;;;6.90;99.90;;;;;;4921601;29;20480;-93
2023/02/04 06:00:47;;;;;;;15.32;2.42;;;6.90;99.90;;;;;;4922172;29;20135;-93
2023/02/04 06:03:18;;;;;;;10.93;2.03;;;6.80;99.90;;;;;;4938840;29;20141;-91
2023/02/04 06:05:43;;;;;;;11.40;2.28;;;6.80;99.90;;;;;;4922124;29;20476;-91
2023/02/04 06:08:09;;;;;;;11.88;2.03;;;6.80;99.90;;;;;;4935264;29;20047;-93
2023/02/04 06:10:35;;;;;;;13.75;2.10;;;6.80;99.90;;;;;;4938693;29;20067;-93
2023/02/04 06:13:01;;;;;;;13.20;2.45;;;6.80;99.90;;;;;;4922182;29;20043;-93
2023/02/04 06:15:26;;;;;;;13.23;2.55;;;6.80;99.90;;;;;;4921535;29;20507;-94
2023/02/04 06:17:52;;;;;;;12.85;2.40;;;6.80;99.90;;;;;;4939256;29;20080;-94
2023/02/04 06:20:18;;;;;;;8.65;2.25;;;6.80;99.90;;;;;;4938786;29;20040;-95
2023/02/04 06:22:43;;;;;;;14.13;2.30;;;6.80;99.90;;;;;;4921884;29;20407;-93
2023/02/04 06:25:09;;;;;;;11.10;2.38;;;6.80;99.90;;;;;;4921973;29;20028;-95
2023/02/04 06:27:35;;;;;;;11.15;2.50;;;6.80;99.90;;;;;;4938850;29;20126;-94
2023/02/04 06:30:00;;;;;;;13.40;2.42;;;6.80;99.90;;;;;;4938854;29;20541;-94
2023/02/04 06:32:26;;;;;;;14.52;2.80;;;6.80;99.90;;;;;;4921833;29;20066;-94
2023/02/04 06:34:53;;;;;;;10.52;2.50;;;6.80;99.90;;;;;;4938709;29;20410;-93
2023/02/04 06:37:19;;;;;;;11.10;2.28;;;6.70;99.90;;;;;;4921293;29;20492;-94
2023/02/04 06:39:45;;;;;;;12.55;2.20;;;6.70;99.90;;;;;;4938563;29;20090;-94
2023/02/04 06:42:10;;;;;;;7.80;2.08;;;6.70;99.90;;;;;;4938563;29;20154;-93
2023/02/04 06:44:36;;;;;;;11.65;2.60;;;6.70;99.90;;;;;;4921694;29;20039;-92
2023/02/04 06:47:02;;;;;;;14.77;2.50;;;6.70;99.90;;;;;;4918510;29;20408;-93
2023/02/04 06:49:27;;;;;;;11.63;2.35;;;6.70;99.90;;;;;;4920795;29;20078;-93
2023/02/04 06:51:54;;;;;;;12.48;2.50;;;6.70;99.90;;;;;;4921364;29;20503;-92
2023/02/04 06:54:19;;;;;;;13.45;2.72;;;6.70;99.90;;;;;;4921061;29;20052;-92
2023/02/04 06:56:45;;;;;;;14.27;2.53;;;6.80;99.90;;;;;;4921516;29;20404;-95
2023/02/04 06:59:11;;;;;;;10.43;2.25;;;6.70;99.90;;;;;;4938102;29;20499;-94
2023/02/04 07:01:36;;;;;;;13.05;2.45;;;6.70;99.90;;;;;;4938400;29;20055;-95
2023/02/04 07:04:02;;;;;;;21.02;3.15;;;6.70;99.90;;;;;;4935762;29;20115;-95
2023/02/04 07:06:28;;;;;;;14.05;2.40;;;6.70;99.90;;;;;;4934203;29;20058;-93
2023/02/04 07:08:53;;;;;;;19.77;3.10;;;6.70;99.90;;;;;;4920898;29;20044;-93
2023/02/04 07:11:21;;;;;;;17.70;3.05;;;6.70;99.90;;;;;;4920848;29;20071;-93
2023/02/04 07:13:50;;;;;;;16.02;2.63;;;6.70;99.90;;;;;;4920539;29;20498;-94
2023/02/04 07:16:15;;;;;;;14.95;2.83;;;6.70;99.90;;;;;;4919831;29;20126;-93
2023/02/04 07:18:41;;;;;;;14.38;2.70;;;6.70;99.90;;;;;;4938705;29;20459;-93
2023/02/04 07:21:21;;;;;;;12.80;2.17;;;6.70;99.90;;;;;;4947045;23;20047;-93
2023/02/04 07:23:47;;;;;;;15.15;2.58;;;6.60;99.90;;;;;;4919087;29;20091;-93
2023/02/04 07:26:13;;;;;;;13.18;2.42;;;6.60;99.90;;;;;;4902150;29;20095;-93
2023/02/04 07:28:44;;;;;;;13.60;2.47;;;6.70;99.90;;;;;;4900030;29;20040;-93
2023/02/04 07:31:13;;;;;;;12.18;2.33;;;6.60;99.90;;;;;;4900097;29;20485;-93
2023/02/04 07:33:55;;;;;;;13.32;2.50;;;6.60;99.90;;;;;;4918460;29;20047;-90
2023/02/04 07:36:21;;;;;;;12.05;2.67;;;6.60;99.90;;;;;;4899974;29;20155;-95
2023/02/04 07:38:49;;;;;;;10.70;2.20;;;6.60;99.90;;;;;;4898967;29;20123;-90
2023/02/04 07:41:19;;;;;;;13.45;2.25;;;6.60;99.90;;;;;;4911377;29;20132;-90
2023/02/04 07:44:01;;;;;;;9.35;2.15;;;6.60;99.90;;;;;;4947242;23;20106;-91
2023/02/04 07:46:27;;;;;;;16.35;2.03;;;6.50;99.90;;;;;;4917122;29;20150;-90
2023/02/04 07:48:53;;;;;;;13.45;2.20;;;6.60;99.90;;;;;;4936363;29;20054;-92
2023/02/04 07:51:52;;;;;;;14.10;2.28;;;6.60;99.90;;;;;;4933274;23;20497;-86
2023/02/04 07:54:59;;;;;;;14.30;2.08;;;6.50;99.90;;;;;;4891484;29;20052;-86
2023/02/04 07:57:31;;;;;;;10.77;1.98;;;6.50;99.90;;;;;;4881976;29;20049;-86
2023/02/04 08:00:00;;;;;;;12.70;2.15;;;6.60;99.90;;;;;;4914158;29;20032;-84
2023/02/04 08:02:25;;;;;;;14.63;2.45;;;6.60;99.90;;;;;;4895947;29;20063;-88
2023/02/04 08:05:10;;;;;;;12.10;2.80;;;6.50;99.90;;;;;;4898543;29;20075;-90
2023/02/04 08:07:38;;;;;;;14.13;2.50;;;6.50;99.90;;;;;;4897727;29;20480;-89
2023/02/04 08:12:44;;;;;;;11.60;2.88;;;6.50;99.90;;;;;;4939957;23;20076;-90
2023/02/04 08:15:09;;;;;;;14.68;2.40;;;6.50;99.90;;;;;;4935468;29;20086;-90
2023/02/04 08:17:35;;;;;;;10.93;2.58;;;6.50;99.90;;;;;;4936245;29;20044;-89
2023/02/04 08:20:01;;;;;;;11.90;2.60;;;6.50;99.90;;;;;;4935576;29;20048;-90
2023/02/04 08:22:26;;;;;;;14.40;2.72;;;6.50;99.90;;;;;;4916368;29;20476;-91
2023/02/04 08:24:52;;;;;;;14.30;2.85;;;6.50;99.90;;;;;;4902553;29;20099;-89
2023/02/04 08:27:18;;;;;;;11.30;2.50;;;6.50;99.90;;;;;;4912371;29;20063;-89
2023/02/04 08:29:43;;;;;;;11.27;2.67;;;6.50;99.90;;;;;;4935106;29;20036;-91
2023/02/04 08:32:12;;;;;;;11.75;2.78;;;6.50;99.90;;;;;;4907902;29;20135;-90
2023/02/04 08:34:42;;;;;;;11.93;2.28;;;6.50;99.90;;;;;;4909280;29;20122;-90
2023/02/04 08:37:08;;;;;;;11.15;2.47;;;6.50;99.90;;;;;;4934396;29;20054;-90
2023/02/04 08:39:33;;;;;;;14.27;2.38;;;6.50;99.90;;;;;;4934244;29;20043;-90
2023/02/04 08:41:59;;;;;;;17.08;2.50;;;6.60;99.90;;;;;;4936316;29;20036;-91
2023/02/04 08:44:24;;;;;;;12.80;3.05;;;6.60;99.90;;;;;;4914458;29;20071;-91
2023/02/04 08:46:50;;;;;;;14.30;2.30;;;6.50;99.90;;;;;;4916093;29;20075;-91
2023/02/04 08:49:24;;;;;;;12.55;2.40;;;6.60;99.90;;;;;;4918377;29;20408;-90
2023/02/04 08:51:53;;;;;;;13.85;2.35;;;6.60;99.90;;;;;;4917617;29;20159;-89
2023/02/04 08:54:18;;;;;;;11.48;2.30;;;6.60;99.90;;;;;;4935355;29;20052;-90
2023/02/04 08:56:54;;;;;;;15.70;2.42;;;6.60;99.90;;;;;;4935692;29;20040;-90
2023/02/04 08:59:23;;;;;;;18.08;2.42;;;6.60;99.90;;;;;;4918567;29;20079;-93
2023/02/04 09:01:51;;;;;;;11.35;2.20;;;6.60;99.90;;;;;;4924539;29;20074;-92
2023/02/04 09:04:21;;;;;;;15.95;2.60;;;6.60;99.90;;;;;;4949603;23;20127;-92
2023/02/04 09:06:52;;;;;;;18.77;2.92;;;6.60;99.90;;;;;;4901984;29;20559;-93
2023/02/04 09:09:18;;;;;;;16.83;2.50;;;6.60;99.90;;;;;;4885669;29;20080;-92
2023/02/04 09:11:44;;;;;;;14.20;2.40;;;6.70;99.90;;;;;;4902721;29;20056;-91
2023/02/04 09:14:09;;;;;;;12.73;2.30;;;6.60;99.90;;;;;;4885712;29;20135;-91
2023/02/04 09:16:35;;;;;;;11.07;2.10;;;6.60;99.90;;;;;;4884914;29;20080;-92
2023/02/04 09:19:01;;;;;;;11.38;2.15;;;6.60;99.90;;;;;;4885585;29;20055;-93
2023/02/04 09:21:27;;;;;;;10.27;1.75;;;6.70;99.90;;;;;;4885019;29;20063;-91
2023/02/04 09:23:55;;;;;;;12.45;2.00;;;6.70;99.90;;;;;;4901244;29;20041;-92
2023/02/04 09:26:24;;;;;;;9.77;2.40;;;6.70;99.90;;;;;;4901991;29;20055;-92
2023/02/04 09:28:52;;;;;;;15.65;2.88;;;6.70;99.90;;;;;;4901752;29;20052;-92
2023/02/04 09:31:23;;;;;;;11.77;2.28;;;6.70;99.90;;;;;;4902401;29;20048;-91
2023/02/04 09:33:52;;;;;;;16.10;2.13;;;6.70;99.90;;;;;;4901990;29;20132;-90
2023/02/04 09:36:21;;;;;;;10.00;2.08;;;6.70;99.90;;;;;;4884831;29;20481;-91
2023/02/04 09:38:49;;;;;;;13.05;2.35;;;6.70;99.90;;;;;;4885129;29;20084;-91
2023/02/04 09:41:14;;;;;;;13.15;2.10;;;6.70;99.90;;;;;;4901913;29;20059;-93
2023/02/04 09:43:45;;;;;;;12.93;2.05;;;6.70;99.90;;;;;;4884909;29;20049;-91
2023/02/04 09:46:23;;;;;;;11.55;2.28;;;6.70;99.90;;;;;;4885376;29;20060;-92
2023/02/04 09:48:49;;;;;;;12.05;2.50;;;6.80;99.90;;;;;;4900712;29;20184;-92
2023/02/04 09:51:24;;;;;;;12.02;2.30;;;6.70;99.90;;;;;;4901447;29;20045;-91
2023/02/04 09:53:54;;;;;;;18.20;2.65;;;6.70;99.90;;;;;;4901880;29;20496;-91
2023/02/04 09:56:20;;;;;;;13.68;2.40;;;6.70;99.90;;;;;;4884879;29;20045;-91
2023/02/04 09:58:45;;;;;;;11.70;2.10;;;6.70;99.90;;;;;;4901582;29;20381;-91
2023/02/04 10:01:15;;;;;;;12.35;2.08;;;6.70;99.90;;;;;;4885447;29;20056;-91
2023/02/04 10:03:45;;;;;;;8.63;1.98;;;6.70;99.90;;;;;;4884316;29;20092;-91
2023/02/04 10:06:19;;;;;;;11.90;2.00;;;6.80;99.90;;;;;;4884575;29;20064;-91
2023/02/04 10:08:49;;;;;;;8.38;2.22;;;6.80;99.90;;;;;;4900451;29;20052;-91
2023/02/04 10:11:18;;;;;;;7.80;2.03;;;6.80;99.90;;;;;;4900547;29;20041;-91
2023/02/04 10:13:49;;;;;;;11.48;1.90;;;6.80;99.90;;;;;;4884683;29;20064;-92
2023/02/04 10:16:19;;;;;;;12.15;2.33;;;6.80;99.90;;;;;;4901359;29;20072;-92
2023/02/04 10:18:45;;;;;;;9.13;1.77;;;6.80;99.90;;;;;;4884569;29;20045;-92
2023/02/04 10:21:18;;;;;;;13.27;2.00;;;6.90;99.90;;;;;;4884418;29;20058;-92
2023/02/04 10:23:50;;;;;;;12.20;1.95;;;6.90;99.90;;;;;;4884617;29;20064;-92
2023/02/04 10:26:24;;;;;;;11.70;2.05;;;6.90;99.90;;;;;;4900718;29;20044;-91
2023/02/04 10:28:56;;;;;;;11.48;2.05;;;6.90;99.90;;;;;;4901136;29;20096;-91
2023/02/04 10:31:39;;;;;;;12.38;2.03;;;7.00;99.90;;;;;;4900665;29;20544;-93
2023/02/04 10:34:11;;;;;;;10.07;2.20;;;7.00;99.90;;;;;;4899915;29;20045;-93
2023/02/04 10:36:37;;;;;;;11.52;1.80;;;7.00;99.90;;;;;;4901031;29;20058;-92
2023/02/04 10:39:09;;;;;;;11.82;1.67;;;7.10;99.90;;;;;;4932341;23;20044;-92
2023/02/04 10:41:38;;;;;;;10.30;2.00;;;7.10;99.90;;;;;;4937548;29;20439;-92
2023/02/04 10:44:25;;;;;;;10.10;2.17;;;7.10;99.90;;;;;;4945565;23;20053;-93
2023/02/04 10:47:02;;;;;;;9.07;1.77;;;7.20;99.90;;;;;;4918717;29;20135;-91
2023/02/04 10:49:28;;;;;;;11.20;2.00;;;7.20;99.90;;;;;;4917644;29;20052;-90
2023/02/04 10:51:53;;;;;;;7.25;1.50;;;7.20;99.90;;;;;;4909005;29;20054;-91
2023/02/04 10:54:31;;;;;;;11.15;1.95;;;7.30;99.90;;;;;;4906527;29;20102;-91
2023/02/04 10:57:06;;;;;;;16.02;2.60;;;7.30;99.90;;;;;;4904548;29;20043;-91
2023/02/04 10:59:32;;;;;;;11.80;1.75;;;7.30;99.90;;;;;;4901906;29;20083;-90
2023/02/04 11:02:01;;;;;;;9.35;1.83;;;7.40;99.90;;;;;;4903141;29;20497;-91
2023/02/04 11:04:27;;;;;;;10.73;1.98;;;7.40;99.90;;;;;;4918640;29;20040;-89
2023/02/04 11:06:54;;;;;;;11.25;1.92;;;7.40;99.90;;;;;;4904436;29;20092;-93
2023/02/04 11:09:20;;;;;;;12.20;2.13;;;7.50;99.90;;;;;;4895371;29;20053;-93
2023/02/04 11:11:50;;;;;;;11.55;2.00;;;7.60;99.90;;;;;;4903372;29;20040;-93
2023/02/04 11:14:25;;;;;;;7.78;2.00;;;7.60;99.90;;;;;;4903743;29;20056;-93
2023/02/04 11:16:53;;;;;;;7.68;1.50;;;7.60;99.90;;;;;;4901474;29;20493;-93
2023/02/04 11:19:49;;;;;;;8.52;1.52;;;7.70;99.90;;;;;;4896074;29;20135;-93
2023/02/04 11:22:41;;;;;;;12.32;1.70;;;7.80;99.90;;;;;;4889990;29;20062;-93
2023/02/04 11:25:49;;;;;;;10.20;1.73;;;7.80;99.90;;;;;;4922238;29;20044;-93
2023/02/04 11:28:26;;;;;;;7.35;1.60;;;7.80;99.90;;;;;;4913656;29;20079;-92
2023/02/04 11:31:02;;;;;;;10.52;2.30;;;7.90;99.90;;;;;;4893540;29;20044;-92
2023/02/04 11:33:41;;;;;;;8.32;1.90;;;8.00;99.90;;;;;;4898691;29;20549;-94
2023/02/04 11:36:38;;;;;;;;;;;;;;;;;;;;;
2023/02/04 11:41:39;;;;;;;8.15;1.60;;;8.00;99.90;;;;;;4952760;23;20066;-92
2023/02/04 11:44:11;;;;;;;7.88;1.73;;;8.10;99.90;;;;;;4920598;29;20036;-92
2023/02/04 11:46:37;;;;;;;8.57;1.58;;;8.00;99.90;;;;;;4920021;29;20051;-92
2023/02/04 11:49:02;;;;;;;7.88;1.50;;;8.10;99.90;;;;;;4920560;29;20048;-92
2023/02/04 11:51:34;;;;;;;10.60;1.67;;;8.10;99.90;;;;;;4918971;29;20123;-92
2023/02/04 11:54:00;;;;;;;10.80;1.73;;;8.10;99.90;;;;;;4919831;29;20063;-92
2023/02/04 11:56:28;;;;;;;8.60;1.58;;;8.20;99.90;;;;;;4918223;29;20134;-91
2023/02/04 11:58:57;;;;;;;7.93;1.75;;;8.10;99.90;;;;;;4919755;29;20051;-92
2023/02/04 12:01:29;;;;;;;8.35;1.60;;;8.20;99.90;;;;;;4920329;29;20045;-93
2023/02/04 12:04:03;;;;;;;7.75;1.75;;;8.20;99.90;;;;;;4919804;29;20056;-93
2023/02/04 12:06:35;;;;;;;5.85;1.38;;;8.30;99.90;;;;;;4917985;29;20047;-94
2023/02/04 12:09:15;;;;;;;8.20;1.63;;;8.30;99.90;;;;;;4920494;29;20393;-93
2023/02/04 12:12:14;;;;;;;8.65;1.52;;;8.30;99.90;;;;;;4933697;29;20047;-93
2023/02/04 12:14:43;;;;;;;8.82;1.40;;;8.40;99.90;;;;;;4920196;29;20055;-93
2023/02/04 12:17:17;;;;;;;5.35;1.42;;;8.40;99.90;;;;;;4959381;23;20111;-93
2023/02/04 12:19:43;;;;;;;10.23;1.67;;;8.50;99.90;;;;;;4928211;29;20107;-93
2023/02/04 12:22:09;;;;;;;7.45;1.48;;;8.50;99.90;;;;;;4924277;29;20067;-92
2023/02/04 12:24:40;;;;;;;7.28;1.30;;;8.50;99.90;;;;;;4919920;29;20043;-92
2023/02/04 12:27:06;;;;;;;8.45;1.25;;;8.60;99.90;;;;;;4920644;29;20043;-94
2023/02/04 12:29:41;;;;;;;8.60;1.40;;;8.60;99.90;;;;;;4922114;29;20043;-92
2023/02/04 12:32:12;;;;;;;9.68;1.35;;;8.60;99.90;;;;;;4935948;29;20135;-91
2023/02/04 12:34:38;;;;;;;6.82;1.35;;;8.70;99.90;;;;;;4922123;29;20040;-92
2023/02/04 12:37:03;;;;;;;8.20;1.50;;;8.70;99.90;;;;;;4920491;29;20514;-89
2023/02/04 12:39:44;;;;;;;6.25;1.50;;;8.70;99.90;;;;;;4916069;29;20047;-87
2023/02/04 12:42:16;;;;;;;7.32;1.40;;;8.80;99.90;;;;;;4935619;29;20500;-92
2023/02/04 12:44:45;;;;;;;7.43;1.45;;;8.80;99.90;;;;;;4936516;29;20047;-91
2023/02/04 12:47:20;;;;;;;6.00;1.20;;;8.80;99.90;;;;;;4935538;29;20036;-91
2023/02/04 12:49:45;;;;;;;11.23;1.45;;;8.80;99.90;;;;;;4907318;29;20047;-91
2023/02/04 12:52:11;;;;;;;6.72;1.50;;;8.90;99.90;;;;;;4936511;29;20503;-92
2023/02/04 12:54:39;;;;;;;8.65;1.40;;;8.90;99.90;;;;;;4936532;29;20048;-91
2023/02/04 12:57:05;;;;;;;5.22;1.10;;;8.90;99.90;;;;;;4936704;29;20051;-92
2023/02/04 12:59:31;;;;;;;5.95;1.40;;;9.00;99.90;;;;;;4918929;29;20047;-92
2023/02/04 13:01:57;;;;;;;6.35;1.33;;;9.00;99.90;;;;;;4919691;29;20035;-91